Terminal Aerodrome Forecast
Issued by NWS Pittsburgh, PA

Current Version | Previous Version | Graphics & Text | Print | Product List | Glossary On
Versions: 1 2 3 4 5 6 7 8 9 10 11 12 13 14 15 16 17 18 19 20 21 22 23 24 25 26 27 28 29 30
000
FTUS41 KPBZ 132300 CCA
TAFPIT
TAF COR
KPIT 132347Z 1400/1506 23005KT P6SM SCT035 BKN100
      TEMPO 1400/1401 5SM -TSRA BKN035CB
     FM140700 22003KT 5SM BR SCT005 BKN010
     FM141400 22005KT P6SM BKN020
     FM141700 23005KT P6SM VCSH BKN035 PROB30 1421/1424 6SM -TSRA
      BKN035CB=

USA.gov is the U.S. government's official web portal to all federal, state and local government web resources and services.